Time;durP1;ratioP1;P1;durP2;ratioP2;P2;SDS_P1;SDS_P2;PMS_P1;PMS_P2;Temp;Humidity;BMP_temperature;BMP_pressure;BME280_temperature;BME280_humidity;BME280_pressure;Samples;Min_cycle;Max_cycle;Signal;HPM_P1;HPM_P2
2022/01/31 00:01:13;;;;;;;0.70;0.70;;;3.30;99.90;;;;;;5000095;28;20436;-80
2022/01/31 00:03:39;;;;;;;0.80;0.80;;;3.20;99.90;;;;;;5002062;28;20058;-81
2022/01/31 00:06:04;;;;;;;0.80;0.80;;;3.20;99.90;;;;;;5003511;28;20042;-81
2022/01/31 00:08:31;;;;;;;3.92;2.88;;;3.20;99.90;;;;;;4983693;28;20042;-81
2022/01/31 00:10:58;;;;;;;0.90;0.90;;;3.20;99.90;;;;;;4996201;28;20046;-81
2022/01/31 00:13:33;;;;;;;1.45;1.35;;;3.20;99.90;;;;;;5003998;28;20105;-80
2022/01/31 00:15:58;;;;;;;4.40;1.38;;;3.20;99.90;;;;;;4986338;28;20105;-81
2022/01/31 00:18:24;;;;;;;1.25;1.05;;;3.20;99.90;;;;;;5003873;28;20042;-79
2022/01/31 00:20:51;;;;;;;0.80;0.80;;;3.10;99.90;;;;;;5003287;28;20043;-80
2022/01/31 00:23:16;;;;;;;0.65;0.65;;;3.10;99.90;;;;;;5002865;28;20043;-80
2022/01/31 00:25:42;;;;;;;0.70;0.70;;;3.20;99.90;;;;;;5002086;28;20060;-80
2022/01/31 00:28:07;;;;;;;8.10;2.42;;;3.20;99.90;;;;;;5003259;28;20060;-80
2022/01/31 00:30:33;;;;;;;2.28;1.02;;;3.10;99.90;;;;;;5003025;28;20035;-81
2022/01/31 00:32:59;;;;;;;0.80;0.80;;;3.20;99.90;;;;;;5002220;28;20144;-80
2022/01/31 00:35:26;;;;;;;6.80;1.00;;;3.20;99.90;;;;;;4999165;28;20047;-82
2022/01/31 00:37:52;;;;;;;0.75;0.75;;;3.20;99.90;;;;;;5002383;28;20117;-81
2022/01/31 00:40:21;;;;;;;0.80;0.80;;;3.20;99.90;;;;;;5002321;28;20046;-80
2022/01/31 00:42:46;;;;;;;0.73;0.73;;;3.20;99.90;;;;;;5003300;28;20038;-80
2022/01/31 00:45:20;;;;;;;0.90;0.90;;;3.30;99.90;;;;;;5002829;28;20052;-80
2022/01/31 00:47:50;;;;;;;;;;;3.30;99.90;;;;;;5001450;28;20062;-80
2022/01/31 00:50:18;;;;;;;0.90;0.90;;;3.20;99.90;;;;;;5001074;28;19925;-81
2022/01/31 00:52:45;;;;;;;0.80;0.80;;;3.20;99.90;;;;;;5001799;28;20050;-80
2022/01/31 00:55:12;;;;;;;0.90;0.90;;;3.20;99.90;;;;;;4996027;28;20043;-81
2022/01/31 00:57:40;;;;;;;1.35;1.25;;;3.30;99.90;;;;;;5002372;28;20057;-82
2022/01/31 01:00:06;;;;;;;1.17;1.02;;;3.30;99.90;;;;;;4993691;28;20177;-82
2022/01/31 01:02:32;;;;;;;1.95;1.55;;;3.30;99.90;;;;;;5001370;28;20050;-80
2022/01/31 01:04:57;;;;;;;0.80;0.80;;;3.30;99.90;;;;;;5002764;28;20038;-81
2022/01/31 01:07:23;;;;;;;0.80;0.80;;;3.30;99.90;;;;;;5002924;28;20074;-81
2022/01/31 01:09:49;;;;;;;0.90;0.90;;;3.30;99.90;;;;;;4996297;28;20121;-80
2022/01/31 01:12:17;;;;;;;1.40;1.25;;;3.30;99.90;;;;;;5001803;28;20038;-82
2022/01/31 01:14:43;;;;;;;0.70;0.70;;;3.30;99.90;;;;;;4998019;28;20074;-81
2022/01/31 01:17:09;;;;;;;0.80;0.80;;;3.30;99.90;;;;;;5001326;28;20058;-81
2022/01/31 01:19:34;;;;;;;1.15;1.08;;;3.30;99.90;;;;;;5001809;28;20173;-81
2022/01/31 01:22:01;;;;;;;1.02;1.02;;;3.30;99.90;;;;;;5002413;28;20390;-81
2022/01/31 01:24:26;;;;;;;0.80;0.80;;;3.30;99.90;;;;;;4995808;28;20053;-83
2022/01/31 01:26:53;;;;;;;0.95;0.95;;;3.30;99.90;;;;;;4994672;28;20134;-80
2022/01/31 01:29:19;;;;;;;0.90;0.90;;;3.30;99.90;;;;;;5002516;28;20050;-80
2022/01/31 01:31:46;;;;;;;0.90;0.90;;;3.30;99.90;;;;;;5002153;28;20066;-81
2022/01/31 01:34:12;;;;;;;0.80;0.80;;;3.20;99.90;;;;;;5002286;28;20053;-80
2022/01/31 01:36:38;;;;;;;0.80;0.80;;;3.20;99.90;;;;;;5002068;28;20391;-81
2022/01/31 01:39:04;;;;;;;6.15;0.95;;;3.20;99.90;;;;;;4983875;28;20039;-81
2022/01/31 01:41:30;;;;;;;1.83;1.73;;;3.20;99.90;;;;;;5001375;28;20046;-81
2022/01/31 01:43:56;;;;;;;0.95;0.95;;;3.20;99.90;;;;;;5002233;28;20070;-81
2022/01/31 01:46:22;;;;;;;3.35;1.90;;;3.20;99.90;;;;;;5002488;28;20070;-80
2022/01/31 01:48:47;;;;;;;0.90;0.90;;;3.20;99.90;;;;;;5002086;28;20057;-81
2022/01/31 01:51:14;;;;;;;2.55;2.10;;;3.20;99.90;;;;;;5001429;28;20061;-82
2022/01/31 01:53:39;;;;;;;1.00;1.00;;;3.20;99.90;;;;;;4999719;28;20073;-80
2022/01/31 01:56:05;;;;;;;1.25;1.17;;;3.20;99.90;;;;;;5001663;28;20042;-81
2022/01/31 01:58:38;;;;;;;1.42;1.33;;;3.10;99.90;;;;;;5001984;28;20048;-80
2022/01/31 02:01:05;;;;;;;1.03;1.03;;;3.10;99.90;;;;;;4996235;28;20132;-80
2022/01/31 02:03:32;;;;;;;1.08;1.08;;;3.10;99.90;;;;;;4997817;28;20096;-81
2022/01/31 02:05:59;;;;;;;1.38;1.27;;;3.10;99.90;;;;;;4994338;28;20047;-80
2022/01/31 02:08:27;;;;;;;1.85;1.55;;;3.10;99.90;;;;;;4996158;28;20069;-79
2022/01/31 02:10:53;;;;;;;1.55;1.45;;;3.00;99.90;;;;;;4998324;28;20196;-80
2022/01/31 02:13:20;;;;;;;1.00;1.00;;;3.00;99.90;;;;;;5001432;28;20042;-80
2022/01/31 02:15:49;;;;;;;0.98;0.98;;;2.90;99.90;;;;;;4997114;28;20074;-80
2022/01/31 02:18:16;;;;;;;1.65;1.55;;;2.90;99.90;;;;;;5001309;28;20042;-79
2022/01/31 02:20:42;;;;;;;1.38;1.27;;;2.90;99.90;;;;;;4998447;28;20042;-79
2022/01/31 02:23:09;;;;;;;1.10;1.10;;;2.80;99.90;;;;;;4999918;28;20054;-80
2022/01/31 02:26:02;;;;;;;0.98;0.98;;;2.80;99.90;;;;;;5000589;28;20074;-80
2022/01/31 02:28:33;;;;;;;1.33;1.23;;;2.70;99.90;;;;;;4997855;28;20144;-80
2022/01/31 02:30:59;;;;;;;0.98;0.98;;;2.70;99.90;;;;;;4998284;28;20038;-81
2022/01/31 02:33:25;;;;;;;0.85;0.85;;;2.60;99.90;;;;;;4999529;28;20046;-81
2022/01/31 02:36:05;;;;;;;1.10;1.00;;;2.70;99.90;;;;;;5000362;28;20117;-81
2022/01/31 02:38:31;;;;;;;0.80;0.80;;;2.60;99.90;;;;;;5001336;28;20053;-81
2022/01/31 02:40:57;;;;;;;0.82;0.82;;;2.70;99.90;;;;;;5000324;28;20042;-81
2022/01/31 02:43:26;;;;;;;0.90;0.90;;;2.60;99.90;;;;;;5001341;28;20060;-82
2022/01/31 02:45:51;;;;;;;0.70;0.70;;;2.70;99.90;;;;;;4998585;28;20046;-82
2022/01/31 02:48:20;;;;;;;0.80;0.80;;;2.60;99.90;;;;;;4998173;28;20069;-81
2022/01/31 02:50:46;;;;;;;0.90;0.90;;;2.60;99.90;;;;;;5001015;28;20105;-81
2022/01/31 02:53:14;;;;;;;0.82;0.82;;;2.70;99.90;;;;;;5000006;28;20050;-80
2022/01/31 02:55:44;;;;;;;0.70;0.70;;;2.70;99.90;;;;;;4996483;28;20065;-80
2022/01/31 02:58:11;;;;;;;0.90;0.90;;;2.70;99.90;;;;;;5000882;28;20079;-80
2022/01/31 03:00:37;;;;;;;1.00;1.00;;;2.70;99.90;;;;;;4998294;28;20046;-80
2022/01/31 03:03:04;;;;;;;1.67;1.52;;;2.70;99.90;;;;;;5001042;28;20069;-80
2022/01/31 03:05:30;;;;;;;1.13;1.05;;;2.80;99.90;;;;;;5000812;28;20126;-80
2022/01/31 03:07:56;;;;;;;0.98;0.98;;;2.80;99.90;;;;;;5001055;28;20130;-80
2022/01/31 03:10:22;;;;;;;1.15;1.05;;;2.90;99.90;;;;;;4999275;28;20046;-80
2022/01/31 03:12:47;;;;;;;1.63;1.52;;;2.80;99.90;;;;;;4999653;28;20045;-80
2022/01/31 03:15:13;;;;;;;1.95;1.52;;;2.90;99.90;;;;;;4996915;28;20050;-81
2022/01/31 03:17:40;;;;;;;1.60;1.50;;;2.90;99.90;;;;;;5001118;28;20142;-81
2022/01/31 03:20:06;;;;;;;0.80;0.80;;;2.90;99.90;;;;;;4995687;28;20093;-81
2022/01/31 03:22:32;;;;;;;1.35;1.25;;;2.90;99.90;;;;;;4997709;28;20047;-81
2022/01/31 03:24:58;;;;;;;1.02;1.02;;;3.00;99.90;;;;;;5000458;28;20038;-80
2022/01/31 03:27:24;;;;;;;1.10;1.10;;;3.00;99.90;;;;;;5001610;28;20057;-80
2022/01/31 03:29:50;;;;;;;1.10;0.85;;;3.10;99.90;;;;;;4996478;28;20050;-80
2022/01/31 03:32:15;;;;;;;0.80;0.80;;;3.20;99.90;;;;;;4995857;28;20065;-80
2022/01/31 03:34:41;;;;;;;0.88;0.88;;;3.10;99.90;;;;;;4999797;28;20069;-80
2022/01/31 03:37:07;;;;;;;0.73;0.73;;;3.20;99.90;;;;;;5004348;28;20399;-80
2022/01/31 03:39:32;;;;;;;0.80;0.80;;;3.30;99.90;;;;;;5002650;28;20062;-80
2022/01/31 03:41:58;;;;;;;0.90;0.90;;;3.30;99.90;;;;;;5003711;28;20194;-80
2022/01/31 03:44:24;;;;;;;1.00;1.00;;;3.40;99.90;;;;;;4999456;28;20042;-80
2022/01/31 03:46:49;;;;;;;4.35;1.38;;;3.60;99.90;;;;;;4998156;28;20053;-79
2022/01/31 03:49:15;;;;;;;0.80;0.80;;;3.70;99.90;;;;;;5003237;28;20659;-80
2022/01/31 03:51:40;;;;;;;1.00;1.00;;;3.70;99.90;;;;;;5003439;28;20076;-80
2022/01/31 03:54:06;;;;;;;0.77;0.77;;;3.80;99.90;;;;;;5001732;28;20038;-80
2022/01/31 03:56:32;;;;;;;3.00;2.78;;;4.10;99.90;;;;;;4989894;28;20054;-79
2022/01/31 03:58:58;;;;;;;0.98;0.98;;;4.20;99.90;;;;;;4989283;28;20038;-79
2022/01/31 04:01:24;;;;;;;1.65;1.35;;;4.20;99.90;;;;;;4986285;28;20126;-79
2022/01/31 04:03:50;;;;;;;2.53;1.25;;;4.30;99.90;;;;;;4990547;28;20052;-79
2022/01/31 04:06:15;;;;;;;0.75;0.75;;;4.50;99.90;;;;;;5002252;28;20065;-79
2022/01/31 04:08:41;;;;;;;1.70;1.60;;;4.60;99.90;;;;;;4990464;28;20053;-79
2022/01/31 04:11:07;;;;;;;0.80;0.80;;;4.70;99.90;;;;;;4989806;28;20449;-79
2022/01/31 04:13:32;;;;;;;0.80;0.80;;;4.80;99.90;;;;;;4989628;28;20496;-79
2022/01/31 04:15:58;;;;;;;0.80;0.80;;;4.80;99.90;;;;;;4995293;28;20098;-79
2022/01/31 04:18:23;;;;;;;0.90;0.90;;;4.90;99.90;;;;;;4994598;28;20049;-80
2022/01/31 04:20:49;;;;;;;0.80;0.80;;;4.80;99.90;;;;;;4997349;28;20105;-80
2022/01/31 04:23:18;;;;;;;0.80;0.80;;;4.80;99.90;;;;;;5004214;28;20073;-79
2022/01/31 04:25:54;;;;;;;0.95;0.95;;;4.70;99.90;;;;;;5000160;28;20098;-79
2022/01/31 04:28:29;;;;;;;0.80;0.80;;;4.70;99.90;;;;;;5002922;28;20042;-79
2022/01/31 04:31:09;;;;;;;1.05;1.00;;;4.80;99.90;;;;;;5003124;28;20039;-79
2022/01/31 04:33:34;;;;;;;0.77;0.77;;;4.70;99.90;;;;;;5003504;28;20171;-79
2022/01/31 04:36:00;;;;;;;0.80;0.80;;;4.60;99.90;;;;;;5003294;28;20042;-80
2022/01/31 04:38:26;;;;;;;2.05;1.00;;;4.50;99.90;;;;;;5001009;28;20124;-80
2022/01/31 04:40:51;;;;;;;0.70;0.70;;;4.40;99.90;;;;;;4999207;28;20054;-79
2022/01/31 04:43:17;;;;;;;0.80;0.80;;;4.40;99.90;;;;;;5002438;28;20054;-80
2022/01/31 04:45:47;;;;;;;0.88;0.88;;;4.30;99.90;;;;;;5003435;28;20038;-80
2022/01/31 04:48:21;;;;;;;0.95;0.95;;;4.30;99.90;;;;;;5001973;28;20054;-80
2022/01/31 04:50:47;;;;;;;0.70;0.70;;;4.30;99.90;;;;;;5001897;28;20135;-79
2022/01/31 04:53:13;;;;;;;0.70;0.70;;;4.20;99.90;;;;;;5003381;28;20034;-80
2022/01/31 04:55:39;;;;;;;2.88;1.90;;;4.20;99.90;;;;;;5001290;28;20046;-79
2022/01/31 04:58:06;;;;;;;1.15;1.05;;;4.10;99.90;;;;;;5003405;28;20042;-80
2022/01/31 05:00:32;;;;;;;2.03;1.83;;;4.20;99.90;;;;;;5003020;28;20030;-79
2022/01/31 05:02:58;;;;;;;5.15;1.10;;;4.20;99.90;;;;;;5001432;28;20185;-80
2022/01/31 05:05:23;;;;;;;3.80;1.80;;;4.20;99.90;;;;;;5001010;28;20130;-79
2022/01/31 05:07:52;;;;;;;1.20;1.15;;;4.20;99.90;;;;;;4999517;28;20049;-80
2022/01/31 05:10:20;;;;;;;0.70;0.70;;;4.50;99.90;;;;;;4991290;28;20070;-80
2022/01/31 05:12:46;;;;;;;0.98;0.98;;;4.30;99.90;;;;;;5002167;28;20057;-78
2022/01/31 05:15:12;;;;;;;1.48;1.38;;;4.50;99.90;;;;;;5001176;28;20046;-79
2022/01/31 05:17:38;;;;;;;0.70;0.70;;;4.50;99.90;;;;;;5001493;28;20058;-80
2022/01/31 05:20:05;;;;;;;0.70;0.70;;;4.50;99.90;;;;;;4996004;28;20049;-79
2022/01/31 05:22:31;;;;;;;0.85;0.85;;;4.40;99.90;;;;;;5003133;28;20053;-80
2022/01/31 05:24:56;;;;;;;0.80;0.80;;;4.40;99.90;;;;;;5001730;28;20039;-80
2022/01/31 05:27:22;;;;;;;0.73;0.73;;;4.30;99.90;;;;;;5002727;28;20403;-79
2022/01/31 05:29:48;;;;;;;0.77;0.77;;;4.20;99.90;;;;;;4994186;28;20038;-79
2022/01/31 05:32:13;;;;;;;2.50;1.38;;;4.10;99.90;;;;;;5001843;28;20475;-79
2022/01/31 05:34:39;;;;;;;0.80;0.80;;;4.10;99.90;;;;;;5000580;28;20050;-80
2022/01/31 05:37:05;;;;;;;0.70;0.70;;;4.10;99.90;;;;;;5002537;28;20057;-79
2022/01/31 05:39:30;;;;;;;0.80;0.80;;;4.10;99.90;;;;;;4998630;28;20042;-79
2022/01/31 05:41:56;;;;;;;0.80;0.80;;;4.10;99.90;;;;;;5000293;28;20454;-79
2022/01/31 05:44:25;;;;;;;0.80;0.80;;;4.00;99.90;;;;;;4998305;28;20034;-79
2022/01/31 05:46:52;;;;;;;0.80;0.80;;;3.90;99.90;;;;;;5001232;28;20443;-79
2022/01/31 05:49:18;;;;;;;0.80;0.80;;;3.90;99.90;;;;;;5002316;28;20485;-80
2022/01/31 05:52:01;;;;;;;0.98;0.98;;;3.90;99.90;;;;;;5002198;28;20065;-79
2022/01/31 05:54:27;;;;;;;1.10;1.10;;;3.80;99.90;;;;;;5001005;28;20065;-79
2022/01/31 05:56:53;;;;;;;1.30;1.10;;;3.90;99.90;;;;;;5000951;28;20043;-80
2022/01/31 05:59:21;;;;;;;0.80;0.80;;;3.80;99.90;;;;;;5001306;28;20065;-79
2022/01/31 06:01:47;;;;;;;3.22;2.90;;;3.90;99.90;;;;;;5001234;28;20048;-80
2022/01/31 06:04:13;;;;;;;0.70;0.70;;;3.90;99.90;;;;;;4993639;28;20073;-80
2022/01/31 06:06:38;;;;;;;0.63;0.63;;;3.90;99.90;;;;;;5002126;28;20108;-80
2022/01/31 06:09:05;;;;;;;1.50;1.38;;;4.00;99.90;;;;;;4999595;28;20035;-80
2022/01/31 06:11:33;;;;;;;0.80;0.80;;;4.00;99.90;;;;;;5001481;28;20267;-80
2022/01/31 06:14:00;;;;;;;0.80;0.80;;;4.10;99.90;;;;;;5001619;28;20113;-80
2022/01/31 06:16:27;;;;;;;0.70;0.70;;;4.10;99.90;;;;;;5001848;28;20687;-80
2022/01/31 06:18:53;;;;;;;1.52;1.42;;;4.10;99.90;;;;;;5000538;28;20057;-80
2022/01/31 06:21:19;;;;;;;0.70;0.70;;;;;;;;;;4998114;28;20042;-80
2022/01/31 06:23:45;;;;;;;0.80;0.80;;;4.10;99.90;;;;;;5001394;28;20046;-80
2022/01/31 06:26:10;;;;;;;0.70;0.70;;;4.10;99.90;;;;;;5001418;28;20077;-80
2022/01/31 06:28:36;;;;;;;0.75;0.75;;;4.10;99.90;;;;;;4997725;28;20038;-80
2022/01/31 06:31:02;;;;;;;0.80;0.80;;;4.10;99.90;;;;;;4997148;28;20093;-80
2022/01/31 06:33:28;;;;;;;4.13;1.63;;;4.10;99.90;;;;;;4995514;28;20038;-80
2022/01/31 06:35:54;;;;;;;0.70;0.70;;;4.10;99.90;;;;;;4996423;28;20035;-80
2022/01/31 06:38:22;;;;;;;0.75;0.75;;;4.10;99.90;;;;;;4997354;28;20056;-79
2022/01/31 06:40:48;;;;;;;0.70;0.70;;;4.10;99.90;;;;;;5000833;28;20049;-80
2022/01/31 06:43:14;;;;;;;0.70;0.70;;;4.10;99.90;;;;;;4994611;28;20514;-80
2022/01/31 06:45:40;;;;;;;0.70;0.70;;;4.20;99.90;;;;;;5000778;28;20061;-80
2022/01/31 06:48:06;;;;;;;0.70;0.70;;;4.20;99.90;;;;;;4998129;28;20061;-81
2022/01/31 06:50:32;;;;;;;0.70;0.70;;;4.20;99.90;;;;;;5001506;28;20081;-80
2022/01/31 06:52:59;;;;;;;0.70;0.70;;;4.20;99.90;;;;;;5001726;28;20045;-80
2022/01/31 06:55:26;;;;;;;2.35;2.15;;;4.20;99.90;;;;;;5000351;28;20055;-80
2022/01/31 06:57:52;;;;;;;0.75;0.75;;;4.20;99.90;;;;;;5002368;28;20061;-81
2022/01/31 07:00:19;;;;;;;0.70;0.70;;;4.20;99.90;;;;;;4996480;28;20137;-80
2022/01/31 07:02:46;;;;;;;0.70;0.70;;;4.30;99.90;;;;;;5002399;28;20046;-80
2022/01/31 07:05:16;;;;;;;0.77;0.77;;;4.20;99.90;;;;;;5002204;28;20114;-80
2022/01/31 07:07:43;;;;;;;0.70;0.70;;;4.20;99.90;;;;;;5001823;28;20050;-80
2022/01/31 07:10:09;;;;;;;0.70;0.70;;;4.20;99.90;;;;;;5001996;28;20056;-80
2022/01/31 07:12:38;;;;;;;1.73;0.85;;;4.20;99.90;;;;;;5006099;28;20391;-79
2022/01/31 07:15:07;;;;;;;0.73;0.73;;;4.20;99.90;;;;;;5005840;28;20044;-80
2022/01/31 07:17:35;;;;;;;0.70;0.70;;;4.30;99.90;;;;;;4997870;28;20057;-81
2022/01/31 07:20:03;;;;;;;0.80;0.80;;;4.20;99.90;;;;;;4998959;28;20562;-80
2022/01/31 07:22:34;;;;;;;0.70;0.70;;;4.20;99.90;;;;;;5000775;28;20054;-82
2022/01/31 07:25:05;;;;;;;0.52;0.52;;;4.20;99.90;;;;;;4991526;28;20111;-80
2022/01/31 07:27:31;;;;;;;0.65;0.65;;;4.10;99.90;;;;;;5001293;28;20125;-80
2022/01/31 07:29:57;;;;;;;0.82;0.82;;;4.20;99.90;;;;;;5002678;28;20137;-80
2022/01/31 07:32:23;;;;;;;0.65;0.65;;;4.20;99.90;;;;;;4983023;28;20135;-80
2022/01/31 07:34:53;;;;;;;0.68;0.68;;;4.20;99.90;;;;;;4986301;28;20162;-79
2022/01/31 07:37:19;;;;;;;0.80;0.80;;;4.30;99.90;;;;;;4995432;28;20042;-80
2022/01/31 07:39:45;;;;;;;0.68;0.68;;;4.30;99.90;;;;;;5003946;28;20053;-80
2022/01/31 07:42:11;;;;;;;2.25;1.00;;;4.30;99.90;;;;;;5004266;28;20072;-79
2022/01/31 07:44:37;;;;;;;0.75;0.75;;;4.20;99.90;;;;;;4998549;28;20098;-79
2022/01/31 07:47:04;;;;;;;1.67;1.23;;;4.20;99.90;;;;;;5004185;28;20065;-80
2022/01/31 07:49:30;;;;;;;0.70;0.70;;;4.30;99.90;;;;;;5003844;28;20046;-79
2022/01/31 07:51:56;;;;;;;1.42;1.38;;;4.20;99.90;;;;;;5001335;28;20053;-80
2022/01/31 07:54:22;;;;;;;0.75;0.75;;;4.20;99.90;;;;;;5000502;28;20046;-80
2022/01/31 07:56:48;;;;;;;0.70;0.70;;;4.20;99.90;;;;;;5004235;28;20125;-80
2022/01/31 07:59:14;;;;;;;0.65;0.65;;;4.20;99.90;;;;;;5001901;28;20090;-80
2022/01/31 08:01:40;;;;;;;0.60;0.60;;;4.20;99.90;;;;;;5003623;28;20080;-80
2022/01/31 08:04:06;;;;;;;1.05;1.05;;;4.20;99.90;;;;;;5003792;28;20045;-80
2022/01/31 08:06:32;;;;;;;1.27;1.05;;;4.20;99.90;;;;;;4999584;28;20047;-80
2022/01/31 08:08:58;;;;;;;0.70;0.70;;;4.10;99.90;;;;;;5002655;28;20459;-80
2022/01/31 08:11:29;;;;;;;0.70;0.70;;;4.10;99.90;;;;;;4999104;28;20077;-80
2022/01/31 08:13:59;;;;;;;0.70;0.70;;;4.00;99.90;;;;;;5004541;28;20065;-79
2022/01/31 08:16:25;;;;;;;1.70;1.17;;;4.00;99.90;;;;;;5004344;28;20104;-80
2022/01/31 08:18:50;;;;;;;0.73;0.73;;;4.00;99.90;;;;;;5004206;28;20050;-80
2022/01/31 08:21:16;;;;;;;0.70;0.70;;;4.00;99.90;;;;;;5002034;28;20058;-80
2022/01/31 08:23:42;;;;;;;0.80;0.80;;;4.00;99.90;;;;;;5003815;28;20043;-79
2022/01/31 08:26:12;;;;;;;0.70;0.70;;;4.00;99.90;;;;;;5003912;28;20041;-80
2022/01/31 08:28:42;;;;;;;0.80;0.80;;;4.10;99.90;;;;;;5003932;28;20079;-79
2022/01/31 08:31:18;;;;;;;0.70;0.70;;;4.10;99.90;;;;;;4998234;28;20042;-80
2022/01/31 08:36:10;;;;;;;0.70;0.70;;;4.20;99.90;;;;;;5003915;28;20113;-79
2022/01/31 08:38:39;;;;;;;0.60;0.60;;;4.20;99.90;;;;;;5003486;28;20046;-79
2022/01/31 08:41:06;;;;;;;1.20;1.10;;;4.30;99.90;;;;;;5003406;28;20042;-79
2022/01/31 08:43:33;;;;;;;0.70;0.70;;;4.30;99.90;;;;;;4999124;28;20090;-79
2022/01/31 08:45:59;;;;;;;0.70;0.70;;;4.30;99.90;;;;;;5003637;28;20099;-79
2022/01/31 08:48:27;;;;;;;0.80;0.80;;;4.40;99.90;;;;;;5003927;28;20054;-79
2022/01/31 08:50:54;;;;;;;0.70;0.70;;;4.40;99.90;;;;;;5000582;28;20048;-79
2022/01/31 08:53:20;;;;;;;0.80;0.80;;;4.50;99.90;;;;;;4995874;28;20039;-79
2022/01/31 08:55:51;;;;;;;0.60;0.60;;;4.50;99.90;;;;;;4998235;28;20050;-79
2022/01/31 08:58:18;;;;;;;0.73;0.73;;;4.60;99.90;;;;;;5001524;28;20044;-80
2022/01/31 09:00:49;;;;;;;0.77;0.77;;;4.60;99.90;;;;;;4997506;28;20054;-79
2022/01/31 09:05:41;;;;;;;0.65;0.65;;;4.70;99.90;;;;;;5003281;28;20045;-80
2022/01/31 09:08:07;;;;;;;0.70;0.70;;;4.80;99.90;;;;;;5003758;28;20580;-79
2022/01/31 09:10:34;;;;;;;1.08;0.98;;;4.70;99.90;;;;;;5000966;28;20050;-80
2022/01/31 09:12:59;;;;;;;0.70;0.70;;;4.60;99.90;;;;;;5003467;28;20085;-80
2022/01/31 09:15:25;;;;;;;0.70;0.70;;;4.70;99.90;;;;;;5002795;28;20047;-80
2022/01/31 09:17:51;;;;;;;0.77;0.77;;;4.70;99.90;;;;;;4998327;28;20123;-79
2022/01/31 09:20:17;;;;;;;0.70;0.70;;;4.80;99.90;;;;;;4997092;28;20054;-80
2022/01/31 09:22:43;;;;;;;0.70;0.70;;;5.00;99.90;;;;;;5007098;28;20431;-80
2022/01/31 09:25:10;;;;;;;0.70;0.70;;;5.10;99.90;;;;;;4999187;28;20054;-80
2022/01/31 09:27:36;;;;;;;0.70;0.70;;;5.20;99.90;;;;;;5000741;28;20153;-80
2022/01/31 09:30:07;;;;;;;0.80;0.80;;;5.20;99.90;;;;;;5002023;28;20046;-79
2022/01/31 09:32:32;;;;;;;0.70;0.70;;;5.30;99.90;;;;;;5001962;28;20125;-80
2022/01/31 09:34:58;;;;;;;0.70;0.70;;;5.30;99.90;;;;;;4998166;28;20053;-80
2022/01/31 09:37:24;;;;;;;1.25;1.15;;;5.30;99.90;;;;;;4997277;28;20046;-80
2022/01/31 09:39:51;;;;;;;0.70;0.70;;;5.40;99.90;;;;;;5001220;28;20409;-80
2022/01/31 09:42:28;;;;;;;0.70;0.70;;;5.40;99.90;;;;;;5002445;28;20136;-79
2022/01/31 09:50:11;;;;;;;0.70;0.70;;;5.20;99.90;;;;;;5001650;28;20058;-78
2022/01/31 09:52:37;;;;;;;0.70;0.70;;;5.20;99.90;;;;;;5002115;28;20565;-79
2022/01/31 09:55:02;;;;;;;0.70;0.70;;;5.20;99.90;;;;;;5001491;28;20034;-79
2022/01/31 09:57:28;;;;;;;0.60;0.60;;;5.20;99.90;;;;;;4998892;28;20046;-80
2022/01/31 09:59:54;;;;;;;0.70;0.70;;;5.20;99.90;;;;;;5001939;28;20115;-79
2022/01/31 10:02:19;;;;;;;0.60;0.60;;;5.20;99.90;;;;;;5002616;28;20053;-79
2022/01/31 10:04:48;;;;;;;0.70;0.70;;;5.20;99.90;;;;;;5001489;28;20038;-80
2022/01/31 10:07:15;;;;;;;0.60;0.60;;;5.30;99.90;;;;;;5002831;28;20046;-80
2022/01/31 10:09:47;;;;;;;0.60;0.60;;;5.40;99.90;;;;;;4989920;28;20749;-80
2022/01/31 10:16:25;;;;;;;0.70;0.70;;;5.40;99.90;;;;;;4998910;28;20068;-80
2022/01/31 10:18:01;;;;;;;0.77;0.77;;;5.60;99.90;;;;;;4999544;28;20043;-80
2022/01/31 10:20:29;;;;;;;0.70;0.70;;;5.80;99.90;;;;;;4998938;28;20058;-79
2022/01/31 10:23:14;;;;;;;0.70;0.70;;;5.90;99.90;;;;;;4994970;28;20117;-81
2022/01/31 10:25:41;;;;;;;0.68;0.68;;;6.00;99.90;;;;;;4998428;28;20030;-81
2022/01/31 10:28:18;;;;;;;0.70;0.70;;;6.00;99.90;;;;;;4996664;28;20047;-81
2022/01/31 10:30:46;;;;;;;0.70;0.70;;;6.10;99.90;;;;;;4997329;28;20736;-80
2022/01/31 10:33:14;;;;;;;0.60;0.60;;;6.20;99.90;;;;;;5001809;28;20063;-79
2022/01/31 10:35:40;;;;;;;0.60;0.60;;;6.20;99.90;;;;;;4997669;28;20054;-80
2022/01/31 10:38:11;;;;;;;1.05;0.73;;;6.30;99.90;;;;;;4989643;28;20054;-79
2022/01/31 10:54:23;;;;;;;0.70;0.70;;;6.60;99.90;;;;;;5005226;28;20393;-80
2022/01/31 10:56:55;;;;;;;0.60;0.60;;;6.70;99.90;;;;;;5006468;28;20035;-80
2022/01/31 10:59:27;;;;;;;0.70;0.70;;;6.80;99.90;;;;;;5007965;28;20058;-79
2022/01/31 11:01:55;;;;;;;1.23;0.80;;;6.90;99.90;;;;;;5005180;28;20085;-79
2022/01/31 11:04:21;;;;;;;0.60;0.60;;;6.90;99.90;;;;;;4998252;28;20194;-80
2022/01/31 11:06:56;;;;;;;0.63;0.63;;;6.90;99.90;;;;;;5003434;28;20609;-79
2022/01/31 11:09:21;;;;;;;0.70;0.70;;;7.00;99.90;;;;;;4992218;28;20049;-81
2022/01/31 11:11:49;;;;;;;0.60;0.60;;;7.00;99.90;;;;;;4998960;28;20153;-80
2022/01/31 11:14:16;;;;;;;0.60;0.60;;;7.10;99.90;;;;;;5000902;28;20042;-80
2022/01/31 11:16:44;;;;;;;0.60;0.60;;;7.10;99.90;;;;;;5001422;28;20069;-80
2022/01/31 11:19:11;;;;;;;0.60;0.60;;;7.10;99.90;;;;;;5001284;28;20034;-80
2022/01/31 11:21:44;;;;;;;1.33;1.23;;;7.10;99.90;;;;;;5003499;28;20061;-80
2022/01/31 11:24:19;;;;;;;0.70;0.70;;;7.10;99.90;;;;;;5003086;28;20045;-79
2022/01/31 11:27:01;;;;;;;0.77;0.77;;;7.10;99.90;;;;;;5005948;28;20050;-79
2022/01/31 11:29:27;;;;;;;0.50;0.50;;;7.10;99.90;;;;;;5007161;28;20066;-79
2022/01/31 11:31:54;;;;;;;0.60;0.60;;;7.20;99.90;;;;;;5005572;28;20094;-80
2022/01/31 11:34:22;;;;;;;0.60;0.60;;;7.20;99.90;;;;;;5006289;28;20046;-80
2022/01/31 11:36:49;;;;;;;0.60;0.60;;;7.10;99.90;;;;;;5008361;28;20368;-81
2022/01/31 11:39:16;;;;;;;1.27;1.23;;;7.00;99.90;;;;;;5005623;28;20050;-80
2022/01/31 11:41:57;;;;;;;0.50;0.50;;;7.00;99.90;;;;;;5005327;28;20049;-80
2022/01/31 11:44:29;;;;;;;0.70;0.70;;;7.10;99.90;;;;;;5001435;28;20046;-80
2022/01/31 11:46:56;;;;;;;0.93;0.93;;;7.20;99.90;;;;;;5007909;28;20050;-80
2022/01/31 11:49:22;;;;;;;0.63;0.63;;;7.30;99.90;;;;;;5007675;28;20031;-80
2022/01/31 11:52:05;;;;;;;0.82;0.82;;;7.30;99.90;;;;;;5001983;28;20098;-79
2022/01/31 11:54:33;;;;;;;0.60;0.60;;;7.20;99.90;;;;;;5000437;28;20042;-80
2022/01/31 11:56:59;;;;;;;0.60;0.60;;;7.20;99.90;;;;;;4999655;28;20038;-80
2022/01/31 11:59:25;;;;;;;0.75;0.75;;;7.20;99.90;;;;;;5000707;28;20075;-80
2022/01/31 12:01:52;;;;;;;5.88;1.00;;;7.30;99.90;;;;;;4998567;28;20042;-80
2022/01/31 12:04:22;;;;;;;0.60;0.60;;;7.30;99.90;;;;;;5003302;28;20038;-79
2022/01/31 12:06:48;;;;;;;0.60;0.60;;;7.50;99.90;;;;;;5004580;28;20066;-80
2022/01/31 12:09:17;;;;;;;0.60;0.60;;;7.60;99.90;;;;;;5001657;28;20042;-80
2022/01/31 12:12:03;;;;;;;0.70;0.70;;;7.70;99.90;;;;;;4994588;28;20438;-80
2022/01/31 12:14:43;;;;;;;1.48;0.98;;;7.80;99.90;;;;;;4995984;28;20095;-81
2022/01/31 12:18:02;;;;;;;0.50;0.50;;;7.90;99.90;;;;;;4992513;28;20050;-80
2022/01/31 12:23:36;;;;;;;0.60;0.60;;;7.80;99.90;;;;;;5002164;28;20050;-79
2022/01/31 12:26:21;;;;;;;0.60;0.60;;;7.80;99.90;;;;;;4994708;28;20530;-81
2022/01/31 12:28:54;;;;;;;0.73;0.70;;;7.90;99.90;;;;;;4999205;28;20046;-80
2022/01/31 12:31:41;;;;;;;0.80;0.80;;;7.90;99.90;;;;;;4997096;28;20436;-81
2022/01/31 12:34:23;;;;;;;0.60;0.60;;;7.90;99.90;;;;;;5001128;28;20149;-82
2022/01/31 12:36:57;;;;;;;0.95;0.80;;;7.90;99.90;;;;;;4996819;28;20471;-82
2022/01/31 12:39:29;;;;;;;0.70;0.70;;;7.90;99.90;;;;;;4999275;28;20047;-81
2022/01/31 12:42:02;;;;;;;1.95;0.98;;;7.80;99.90;;;;;;4989084;28;20161;-82
2022/01/31 12:44:31;;;;;;;2.10;0.95;;;7.80;99.90;;;;;;4997781;28;20085;-82
2022/01/31 12:47:15;;;;;;;0.88;0.88;;;7.80;99.90;;;;;;4996127;28;20050;-81
2022/01/31 12:49:45;;;;;;;0.50;0.50;;;7.80;99.90;;;;;;4997536;28;20045;-82
2022/01/31 12:52:12;;;;;;;0.60;0.60;;;7.80;99.90;;;;;;5002509;28;20050;-82
2022/01/31 12:54:39;;;;;;;0.60;0.60;;;7.80;99.90;;;;;;4979036;28;20142;-81
2022/01/31 12:57:11;;;;;;;0.70;0.70;;;7.80;99.90;;;;;;4996977;28;20054;-81
2022/01/31 12:59:39;;;;;;;0.63;0.63;;;7.80;99.90;;;;;;4997798;28;20050;-80
2022/01/31 13:02:08;;;;;;;0.90;0.90;;;7.80;99.90;;;;;;5002983;28;20046;-80
2022/01/31 13:04:34;;;;;;;1.40;0.98;;;7.90;99.90;;;;;;5002394;28;20049;-81
2022/01/31 13:07:04;;;;;;;0.60;0.60;;;7.90;99.90;;;;;;5001639;28;20125;-81
2022/01/31 13:09:32;;;;;;;1.33;1.27;;;7.90;99.90;;;;;;4995622;28;20050;-81
2022/01/31 13:12:06;;;;;;;0.60;0.60;;;7.80;99.90;;;;;;5002328;28;20086;-81
2022/01/31 13:14:40;;;;;;;0.55;0.55;;;7.70;99.90;;;;;;5014337;28;20472;-82
2022/01/31 13:17:18;;;;;;;2.60;0.80;;;7.70;99.90;;;;;;5001592;28;20046;-82
2022/01/31 13:19:53;;;;;;;0.60;0.60;;;7.60;99.90;;;;;;5001934;28;20038;-81
2022/01/31 13:22:32;;;;;;;0.60;0.60;;;7.50;99.90;;;;;;5002302;28;20970;-81
2022/01/31 13:25:00;;;;;;;1.08;1.05;;;7.50;99.90;;;;;;4994695;28;20109;-81
2022/01/31 13:27:40;;;;;;;3.53;2.00;;;7.50;99.90;;;;;;5001950;28;20065;-82
2022/01/31 13:30:11;;;;;;;0.60;0.60;;;7.50;99.90;;;;;;4999800;28;20069;-81
2022/01/31 13:32:38;;;;;;;1.42;1.33;;;7.50;99.90;;;;;;5000780;28;20053;-82